createdAt,value
2019-02-07T00:01:34.591Z,6.57
2019-02-07T00:04:06.212Z,6.23
2019-02-07T00:06:56.046Z,6.50
2019-02-07T00:09:24.078Z,5.23
2019-02-07T00:11:51.778Z,5.80
2019-02-07T00:14:19.464Z,6.27
2019-02-07T00:16:59.536Z,5.60
2019-02-07T00:19:27.148Z,5.40
2019-02-07T00:21:54.836Z,5.60
2019-02-07T00:24:24.404Z,5.43
2019-02-07T00:27:07.474Z,5.50
2019-02-07T00:29:38.919Z,5.10
2019-02-07T00:32:11.638Z,5.03
2019-02-07T00:34:40.632Z,5.03
2019-02-07T00:37:28.126Z,4.57
2019-02-07T00:39:56.083Z,4.70
2019-02-07T00:42:23.908Z,4.87
2019-02-07T00:44:54.188Z,5.17
2019-02-07T00:47:37.463Z,5.10
2019-02-07T00:50:07.049Z,4.87
2019-02-07T00:52:36.468Z,4.50
2019-02-07T00:55:05.067Z,5.17
2019-02-07T00:57:39.900Z,4.80
2019-02-07T01:00:11.985Z,5.20
2019-02-07T01:02:39.591Z,5.07
2019-02-07T01:05:08.456Z,4.93
2019-02-07T01:07:36.034Z,4.97
2019-02-07T01:10:11.948Z,4.43
2019-02-07T01:12:43.343Z,4.90
2019-02-07T01:15:17.593Z,4.90
2019-02-07T01:17:57.315Z,5.07
2019-02-07T01:20:49.485Z,4.47
2019-02-07T01:23:19.886Z,4.30
2019-02-07T01:25:54.212Z,4.20
2019-02-07T01:28:22.058Z,4.33
2019-02-07T01:30:49.929Z,4.37
2019-02-07T01:33:18.089Z,4.80
2019-02-07T01:35:49.967Z,4.23
2019-02-07T01:39:16.615Z,4.60
2019-02-07T01:41:44.395Z,4.30
2019-02-07T01:44:11.933Z,3.97
2019-02-07T01:46:55.665Z,4.03
2019-02-07T01:49:31.598Z,4.30
2019-02-07T01:52:01.689Z,4.50
2019-02-07T01:54:29.274Z,4.37
2019-02-07T01:57:05.059Z,4.97
2019-02-07T01:59:34.359Z,4.50
2019-02-07T02:02:02.577Z,4.70
2019-02-07T02:04:30.214Z,4.33
2019-02-07T02:06:57.815Z,4.90
2019-02-07T02:09:25.429Z,4.90
2019-02-07T02:11:54.941Z,5.10
2019-02-07T02:14:25.280Z,4.60
2019-02-07T02:16:59.655Z,4.73
2019-02-07T02:19:27.331Z,4.90
2019-02-07T02:21:55.074Z,4.77
2019-02-07T02:24:22.717Z,4.53
2019-02-07T02:27:02.144Z,4.77
2019-02-07T02:29:29.784Z,5.13
2019-02-07T02:31:57.435Z,5.17
2019-02-07T02:34:27.832Z,5.10
2019-02-07T02:36:55.507Z,5.07
2019-02-07T02:39:23.317Z,4.77
2019-02-07T02:41:51.067Z,4.90
2019-02-07T02:44:21.704Z,4.80
2019-02-07T02:47:13.931Z,4.90
2019-02-07T02:49:43.946Z,4.60
2019-02-07T02:52:11.550Z,4.70
2019-02-07T02:54:43.238Z,4.37
2019-02-07T02:57:35.471Z,4.20
2019-02-07T03:00:08.918Z,4.63
2019-02-07T03:02:46.988Z,4.23
2019-02-07T03:05:33.213Z,4.10
2019-02-07T03:08:47.804Z,4.07
2019-02-07T03:11:37.647Z,3.70
2019-02-07T03:14:30.995Z,3.70
2019-02-07T03:17:28.440Z,3.23
2019-02-07T03:20:26.163Z,3.23
2019-02-07T03:23:16.709Z,3.60
2019-02-07T03:26:03.841Z,2.90
2019-02-07T03:28:55.240Z,2.77
2019-02-07T03:31:54.353Z,3.13
2019-02-07T03:34:39.908Z,3.00
2019-02-07T03:37:59.436Z,2.80
2019-02-07T03:40:52.445Z,2.70
2019-02-07T03:43:40.880Z,2.90
2019-02-07T03:46:52.047Z,2.70
2019-02-07T03:49:38.077Z,2.50
2019-02-07T03:52:28.233Z,2.50
2019-02-07T03:55:38.422Z,2.57
2019-02-07T03:58:54.624Z,2.70
2019-02-07T04:01:49.489Z,2.73
2019-02-07T04:04:35.969Z,2.90
2019-02-07T04:07:23.715Z,2.40
2019-02-07T04:10:10.782Z,2.50
2019-02-07T04:12:50.202Z,2.50
2019-02-07T04:15:37.338Z,2.60
2019-02-07T04:18:29.105Z,2.73
2019-02-07T04:21:16.566Z,2.50
2019-02-07T04:24:02.338Z,2.30
2019-02-07T04:27:01.034Z,2.67
2019-02-07T04:29:37.280Z,2.60
2019-02-07T04:32:39.307Z,2.80
2019-02-07T04:35:25.057Z,2.30
2019-02-07T04:38:10.891Z,2.50
2019-02-07T04:40:56.248Z,3.07
2019-02-07T04:43:35.181Z,2.90
2019-02-07T04:46:27.391Z,2.93
2019-02-07T04:49:01.704Z,2.97
2019-02-07T04:51:48.776Z,2.90
2019-02-07T04:54:45.705Z,2.70
2019-02-07T04:57:38.720Z,2.77
2019-02-07T05:00:35.271Z,3.00
2019-02-07T05:03:22.562Z,2.90
2019-02-07T05:06:09.631Z,2.83
2019-02-07T05:08:55.390Z,2.90
2019-02-07T05:11:41.620Z,3.27
2019-02-07T05:14:43.441Z,3.00
2019-02-07T05:17:54.317Z,3.00
2019-02-07T05:20:39.715Z,3.13
2019-02-07T05:23:26.780Z,3.00
2019-02-07T05:26:12.586Z,2.77
2019-02-07T05:29:11.091Z,3.23
2019-02-07T05:31:57.064Z,3.07
2019-02-07T05:34:44.479Z,3.30
2019-02-07T05:37:55.736Z,3.50
2019-02-07T05:40:52.058Z,3.20
2019-02-07T05:43:37.836Z,3.03
2019-02-07T05:46:50.495Z,3.90
2019-02-07T05:49:27.314Z,3.77
2019-02-07T05:52:19.112Z,3.53
2019-02-07T05:55:06.239Z,2.93
2019-02-07T06:01:21.149Z,3.13
2019-02-07T06:04:03.694Z,3.70
2019-02-07T06:10:36.158Z,3.80
2019-02-07T06:13:21.938Z,4.20
2019-02-07T06:16:12.097Z,3.60
2019-02-07T06:19:06.478Z,3.47
2019-02-07T06:21:56.682Z,2.80
2019-02-07T06:25:07.440Z,2.83
2019-02-07T06:27:55.568Z,2.40
2019-02-07T06:30:35.729Z,2.20
2019-02-07T06:33:25.968Z,2.93
2019-02-07T06:36:08.287Z,3.40
2019-02-07T06:39:00.426Z,3.13
2019-02-07T06:42:06.186Z,3.37
2019-02-07T06:45:11.792Z,3.43
2019-02-07T06:48:34.955Z,3.40
2019-02-07T06:51:21.113Z,3.63
2019-02-07T06:54:14.184Z,3.63
2019-02-07T06:57:20.686Z,3.40
2019-02-07T07:00:08.789Z,3.27
2019-02-07T07:03:24.875Z,3.87
2019-02-07T07:06:23.948Z,3.17
2019-02-07T07:09:09.180Z,3.80
2019-02-07T07:11:58.159Z,4.37
2019-02-07T07:14:43.746Z,4.70
2019-02-07T07:17:39.321Z,4.33
2019-02-07T07:20:33.865Z,4.17
2019-02-07T07:23:21.006Z,4.90
2019-02-07T07:26:00.102Z,4.00
2019-02-07T07:29:08.973Z,3.67
2019-02-07T07:31:58.708Z,3.90
2019-02-07T07:34:58.195Z,3.87
2019-02-07T07:37:48.031Z,3.83
2019-02-07T07:40:37.260Z,4.00
2019-02-07T07:43:23.102Z,4.30
2019-02-07T07:46:28.081Z,4.83
2019-02-07T07:49:13.612Z,3.57
2019-02-07T07:52:00.735Z,5.03
2019-02-07T07:55:02.565Z,4.23
2019-02-07T07:57:58.675Z,4.83
2019-02-07T08:00:36.233Z,4.60
2019-02-07T08:03:16.030Z,4.40
2019-02-07T08:06:01.456Z,4.20
2019-02-07T08:09:30.774Z,4.53
2019-02-07T08:12:17.936Z,4.73
2019-02-07T08:15:20.081Z,3.93
2019-02-07T08:18:12.903Z,4.10
2019-02-07T08:20:56.384Z,5.03
2019-02-07T08:23:40.689Z,4.30
2019-02-07T08:26:21.526Z,4.40
2019-02-07T08:29:02.904Z,4.93
2019-02-07T08:31:50.502Z,4.43
2019-02-07T08:34:50.811Z,4.47
2019-02-07T08:37:52.750Z,5.17
2019-02-07T08:40:34.118Z,4.97
2019-02-07T08:43:15.042Z,4.73
2019-02-07T08:46:03.675Z,4.30
2019-02-07T08:49:06.963Z,4.80
2019-02-07T08:52:02.836Z,3.97
2019-02-07T08:54:48.807Z,3.97
2019-02-07T08:57:49.931Z,4.03
2019-02-07T09:00:44.663Z,5.17
2019-02-07T09:03:47.356Z,5.57
2019-02-07T09:06:33.134Z,3.97
2019-02-07T09:09:19.098Z,4.87
2019-02-07T09:12:04.995Z,4.60
2019-02-07T09:14:42.987Z,4.57
2019-02-07T09:17:20.081Z,4.53
2019-02-07T09:20:07.397Z,4.43
2019-02-07T09:22:59.651Z,4.17
2019-02-07T09:25:49.845Z,4.33
2019-02-07T09:29:01.360Z,4.83
2019-02-07T09:31:51.523Z,3.90
2019-02-07T09:34:37.761Z,4.17
2019-02-07T09:37:19.287Z,3.93
2019-02-07T09:40:05.061Z,4.33
2019-02-07T09:43:01.171Z,3.80
2019-02-07T09:45:58.269Z,4.30
2019-02-07T09:49:03.512Z,3.70
2019-02-07T09:52:05.573Z,3.67
2019-02-07T09:54:55.263Z,3.53
2019-02-07T09:58:10.813Z,3.80
2019-02-07T10:01:00.933Z,4.17
2019-02-07T10:03:50.994Z,4.20
2019-02-07T10:06:41.730Z,4.27
2019-02-07T10:09:27.799Z,3.53
2019-02-07T10:12:21.155Z,4.20
2019-02-07T10:15:14.468Z,3.67
2019-02-07T10:18:16.240Z,3.40
2019-02-07T10:21:21.463Z,3.60
2019-02-07T10:23:55.772Z,3.53
2019-02-07T10:26:41.847Z,3.47
2019-02-07T10:29:36.259Z,3.73
2019-02-07T10:32:26.167Z,3.20
2019-02-07T10:35:00.361Z,3.60
2019-02-07T10:37:40.222Z,3.17
2019-02-07T10:40:28.961Z,3.70
2019-02-07T10:43:14.402Z,3.43
2019-02-07T10:46:04.262Z,3.90
2019-02-07T10:48:44.743Z,3.40
2019-02-07T10:51:24.754Z,4.20
2019-02-07T10:54:10.741Z,3.30
2019-02-07T10:56:59.976Z,2.97
2019-02-07T10:59:45.948Z,3.73
2019-02-07T11:02:48.169Z,3.10
2019-02-07T11:05:38.154Z,3.43
2019-02-07T11:08:43.458Z,3.40
2019-02-07T11:11:36.732Z,3.33
2019-02-07T11:14:36.258Z,3.07
2019-02-07T11:17:15.170Z,3.60
2019-02-07T11:19:53.086Z,3.30
2019-02-07T11:22:55.235Z,3.50
2019-02-07T11:25:41.272Z,2.83
2019-02-07T11:28:33.874Z,3.50
2019-02-07T11:31:26.725Z,2.97
2019-02-07T11:34:12.360Z,3.00
2019-02-07T11:37:03.269Z,3.20
2019-02-07T11:39:50.246Z,2.90
2019-02-07T11:42:52.492Z,3.20
2019-02-07T11:45:43.954Z,2.90
2019-02-07T11:48:30.576Z,2.87
2019-02-07T11:51:08.508Z,2.47
2019-02-07T11:54:00.516Z,3.03
2019-02-07T11:56:50.797Z,2.33
2019-02-07T11:59:41.223Z,2.53
2019-02-07T12:02:20.131Z,2.57
2019-02-07T12:05:07.273Z,2.93
2019-02-07T12:08:12.977Z,2.67
2019-02-07T12:11:00.030Z,2.70
2019-02-07T12:13:52.287Z,2.60
2019-02-07T12:16:46.787Z,2.97
2019-02-07T12:19:30.704Z,2.83
2019-02-07T12:22:10.315Z,2.83
2019-02-07T12:25:09.696Z,2.33
2019-02-07T12:27:56.861Z,2.80
2019-02-07T12:30:42.795Z,2.37
2019-02-07T12:33:18.388Z,1.87
2019-02-07T12:36:23.567Z,1.90
2019-02-07T12:39:16.244Z,2.67
2019-02-07T12:42:01.879Z,1.90
2019-02-07T12:44:46.303Z,2.03
2019-02-07T12:48:02.961Z,2.13
2019-02-07T12:50:48.665Z,2.00
2019-02-07T12:53:37.414Z,2.10
2019-02-07T12:56:25.180Z,1.93
2019-02-07T12:59:24.456Z,1.93
2019-02-07T13:02:17.621Z,2.03
2019-02-07T13:05:08.085Z,2.07
2019-02-07T13:08:12.165Z,1.90
2019-02-07T13:11:03.310Z,1.90
2019-02-07T13:13:48.094Z,2.10
2019-02-07T13:16:34.195Z,1.73
2019-02-07T13:19:16.599Z,1.90
2019-02-07T13:22:18.508Z,2.20
2019-02-07T13:25:08.320Z,1.53
2019-02-07T13:28:05.493Z,1.97
2019-02-07T13:31:22.582Z,1.93
2019-02-07T13:34:11.649Z,2.00
2019-02-07T13:37:27.229Z,2.03
2019-02-07T13:40:16.393Z,1.90
2019-02-07T13:43:08.465Z,2.43
2019-02-07T13:46:00.968Z,2.23
2019-02-07T13:48:48.256Z,2.53
2019-02-07T13:51:41.850Z,2.07
2019-02-07T13:54:33.145Z,1.73
2019-02-07T13:57:26.989Z,2.13
2019-02-07T14:00:29.084Z,1.97
2019-02-07T14:03:48.746Z,2.10
2019-02-07T14:14:16.102Z,2.03
2019-02-07T14:17:33.344Z,2.07
2019-02-07T14:20:51.752Z,2.00
2019-02-07T14:23:56.074Z,2.03
2019-02-07T14:30:33.531Z,1.83
2019-02-07T14:33:30.139Z,2.00
2019-02-07T14:36:30.800Z,1.73
2019-02-07T14:39:44.635Z,1.80
2019-02-07T14:42:55.346Z,1.77
2019-02-07T14:45:49.782Z,1.60
2019-02-07T14:48:34.531Z,2.30
2019-02-07T14:51:18.004Z,1.70
2019-02-07T14:57:23.438Z,1.97
2019-02-07T15:00:20.563Z,2.03
2019-02-07T15:03:34.327Z,4.67
2019-02-07T15:06:30.269Z,3.23
2019-02-07T15:09:24.022Z,9.53
2019-02-07T15:12:14.760Z,2.07
2019-02-07T15:15:32.304Z,2.13
2019-02-07T15:21:50.383Z,2.73
2019-02-07T15:25:18.824Z,2.20
2019-02-07T15:32:12.616Z,2.47
2019-02-07T15:34:53.828Z,2.23
2019-02-07T15:38:04.277Z,2.50
2019-02-07T15:41:17.012Z,2.73
2019-02-07T15:47:40.282Z,2.33
2019-02-07T15:50:49.811Z,2.00
2019-02-07T15:53:29.541Z,3.00
2019-02-07T15:56:23.699Z,2.47
2019-02-07T15:59:25.605Z,2.27
2019-02-07T16:02:38.962Z,2.23
2019-02-07T16:05:48.938Z,2.50
2019-02-07T16:08:54.035Z,1.60
2019-02-07T16:11:57.597Z,1.70
2019-02-07T16:15:16.909Z,1.73
2019-02-07T16:53:47.827Z,2.03
2019-02-07T17:18:45.443Z,2.47
2019-02-07T17:25:39.187Z,2.07
2019-02-07T17:31:56.116Z,1.83
2019-02-07T17:35:03.964Z,2.53
2019-02-07T17:37:14.666Z,2.20
2019-02-07T17:40:05.644Z,2.73
2019-02-07T17:45:42.501Z,1.90
2019-02-07T17:48:46.758Z,2.07
2019-02-07T17:51:37.758Z,1.70
2019-02-07T17:54:29.699Z,1.90
2019-02-07T17:57:19.060Z,2.20
2019-02-07T18:00:13.775Z,4.57
2019-02-07T18:03:15.642Z,3.57
2019-02-07T18:05:43.983Z,2.60
2019-02-07T18:08:19.832Z,1.60
2019-02-07T18:10:54.539Z,1.93
2019-02-07T18:14:15.140Z,2.20
2019-02-07T18:17:01.936Z,1.80
2019-02-07T18:19:36.943Z,2.13
2019-02-07T18:22:08.484Z,1.97
2019-02-07T18:24:36.674Z,1.47
2019-02-07T18:27:04.425Z,1.87
2019-02-07T18:29:32.219Z,1.83
2019-02-07T18:32:00.026Z,1.73
2019-02-07T18:34:34.489Z,1.83
2019-02-07T18:37:04.610Z,2.53
2019-02-07T18:39:32.737Z,2.20
2019-02-07T18:42:17.028Z,2.70
2019-02-07T18:44:44.684Z,2.00
2019-02-07T18:47:16.512Z,2.23
2019-02-07T18:49:46.226Z,1.83
2019-02-07T18:52:38.951Z,1.93
2019-02-07T18:55:09.492Z,2.00
2019-02-07T18:58:14.668Z,2.27
2019-02-07T19:00:44.960Z,1.80
2019-02-07T19:03:51.660Z,2.47
2019-02-07T19:06:40.813Z,2.67
2019-02-07T19:09:20.016Z,1.90
2019-02-07T19:11:59.772Z,2.60
2019-02-07T19:15:29.148Z,2.47
2019-02-07T19:18:31.788Z,2.03
2019-02-07T19:21:06.216Z,2.23
2019-02-07T19:23:35.338Z,2.13
2019-02-07T19:26:16.728Z,2.43
2019-02-07T19:28:50.292Z,2.33
2019-02-07T19:31:18.148Z,2.43
2019-02-07T19:33:46.059Z,2.43
2019-02-07T19:36:23.049Z,1.93
2019-02-07T19:38:50.793Z,2.00
2019-02-07T19:41:18.608Z,2.50
2019-02-07T19:43:48.730Z,3.70
2019-02-07T19:46:16.373Z,3.53
2019-02-07T19:48:48.194Z,3.37
2019-02-07T19:51:15.953Z,2.30
2019-02-07T19:54:50.015Z,2.67
2019-02-07T19:57:27.113Z,2.00
2019-02-07T20:00:05.680Z,2.00
2019-02-07T20:02:34.154Z,1.83
2019-02-07T20:05:01.923Z,2.07
2019-02-07T20:07:52.527Z,2.50
2019-02-07T20:10:21.750Z,2.17
2019-02-07T20:12:50.168Z,2.03
2019-02-07T20:15:24.281Z,2.00
2019-02-07T20:18:04.849Z,1.80
2019-02-07T20:20:41.725Z,3.00
2019-02-07T20:23:08.189Z,3.07
2019-02-07T20:25:44.359Z,2.20
2019-02-07T20:28:14.202Z,2.60
2019-02-07T20:30:43.271Z,2.20
2019-02-07T20:33:11.877Z,2.27
2019-02-07T20:35:45.914Z,2.50
2019-02-07T20:38:21.580Z,2.73
2019-02-07T20:40:49.333Z,2.80
2019-02-07T20:43:17.139Z,2.30
2019-02-07T20:45:44.918Z,2.20
2019-02-07T20:48:42.234Z,2.70
2019-02-07T20:51:13.681Z,2.40
2019-02-07T20:53:51.562Z,2.23
2019-02-07T20:56:26.467Z,2.20
2019-02-07T20:58:57.005Z,2.63
2019-02-07T21:01:25.189Z,2.17
2019-02-07T21:03:53.322Z,2.00
2019-02-07T21:06:24.056Z,2.60
2019-02-07T21:08:56.019Z,3.40
2019-02-07T21:11:26.293Z,3.63
2019-02-07T21:13:55.414Z,2.20
2019-02-07T21:16:23.069Z,2.00
2019-02-07T21:18:50.976Z,1.90
2019-02-07T21:21:24.177Z,1.87
2019-02-07T21:24:01.059Z,1.90
2019-02-07T21:26:54.096Z,2.00
2019-02-07T21:29:21.860Z,1.80
2019-02-07T21:35:42.304Z,2.10
2019-02-07T21:38:21.919Z,2.00
2019-02-07T21:40:50.007Z,2.10
2019-02-07T21:43:19.890Z,1.90
2019-02-07T21:45:47.520Z,2.00
2019-02-07T21:48:18.556Z,2.10
2019-02-07T21:50:46.592Z,2.13
2019-02-07T21:53:14.547Z,2.43
2019-02-07T21:55:43.756Z,2.07
2019-02-07T21:58:26.952Z,2.10
2019-02-07T22:00:54.666Z,1.70
2019-02-07T22:03:22.343Z,2.70
2019-02-07T22:05:50.000Z,2.40
2019-02-07T22:08:39.019Z,2.10
2019-02-07T22:11:09.556Z,2.37
2019-02-07T22:13:37.120Z,1.70
2019-02-07T22:16:04.870Z,2.10
2019-02-07T22:18:42.150Z,1.70
2019-02-07T22:21:09.836Z,2.00
2019-02-07T22:23:37.563Z,1.60
2019-02-07T22:26:05.543Z,1.73
2019-02-07T22:28:33.414Z,2.00
2019-02-07T22:31:01.068Z,2.10
2019-02-07T22:33:28.697Z,2.10
2019-02-07T22:35:56.361Z,1.80
2019-02-07T22:38:28.391Z,1.90
2019-02-07T22:40:55.926Z,2.20
2019-02-07T22:43:23.547Z,2.03
2019-02-07T22:45:51.186Z,2.13
2019-02-07T22:48:18.837Z,1.80
2019-02-07T22:50:46.493Z,1.97
2019-02-07T22:53:14.083Z,1.90
2019-02-07T22:55:41.707Z,1.70
2019-02-07T22:58:27.712Z,1.90
2019-02-07T23:01:27.541Z,1.90
2019-02-07T23:03:59.957Z,1.83
2019-02-07T23:06:30.542Z,2.13
2019-02-07T23:09:00.190Z,1.77
2019-02-07T23:11:27.858Z,2.20
2019-02-07T23:13:55.503Z,2.27
2019-02-07T23:16:23.435Z,1.77
2019-02-07T23:18:51.236Z,1.80
2019-02-07T23:21:18.990Z,1.80
2019-02-07T23:23:46.583Z,1.90
2019-02-07T23:26:14.359Z,1.60
2019-02-07T23:28:42.032Z,1.70
2019-02-07T23:31:10.385Z,1.90
2019-02-07T23:33:38.072Z,1.70
2019-02-07T23:36:07.542Z,1.43
2019-02-07T23:38:58.633Z,1.60
2019-02-07T23:41:26.205Z,1.73
2019-02-07T23:43:53.775Z,1.90
2019-02-07T23:46:21.802Z,1.77
2019-02-07T23:48:49.364Z,1.73
2019-02-07T23:51:17.046Z,1.83
2019-02-07T23:53:44.723Z,1.60
2019-02-07T23:56:12.317Z,1.50
2019-02-07T23:58:49.330Z,1.63
